sensor_id;sensor_type;location;lat;lon;timestamp;P1;durP1;ratioP1;P2;durP2;ratioP2
37409;SDS011;23275;48.914;12.566;2023-03-12T00:02:25;6.10;;;2.60;;
37409;SDS011;23275;48.914;12.566;2023-03-12T00:04:50;5.03;;;2.60;;
37409;SDS011;23275;48.914;12.566;2023-03-12T00:07:16;5.07;;;2.58;;
37409;SDS011;23275;48.914;12.566;2023-03-12T00:09:41;5.60;;;2.65;;
37409;SDS011;23275;48.914;12.566;2023-03-12T00:12:07;5.72;;;2.40;;
37409;SDS011;23275;48.914;12.566;2023-03-12T00:14:33;5.15;;;2.63;;
37409;SDS011;23275;48.914;12.566;2023-03-12T00:16:58;8.32;;;3.05;;
37409;SDS011;23275;48.914;12.566;2023-03-12T00:19:24;8.00;;;2.88;;
37409;SDS011;23275;48.914;12.566;2023-03-12T00:21:50;6.15;;;3.00;;
37409;SDS011;23275;48.914;12.566;2023-03-12T00:24:15;6.32;;;3.28;;
37409;SDS011;23275;48.914;12.566;2023-03-12T00:26:41;5.07;;;3.03;;
37409;SDS011;23275;48.914;12.566;2023-03-12T00:29:07;9.02;;;3.15;;
37409;SDS011;23275;48.914;12.566;2023-03-12T00:31:33;5.03;;;2.70;;
37409;SDS011;23275;48.914;12.566;2023-03-12T00:33:59;6.75;;;3.10;;
37409;SDS011;23275;48.914;12.566;2023-03-12T00:36:27;6.25;;;3.08;;
37409;SDS011;23275;48.914;12.566;2023-03-12T00:38:55;7.00;;;3.00;;
37409;SDS011;23275;48.914;12.566;2023-03-12T00:41:22;7.10;;;2.58;;
37409;SDS011;23275;48.914;12.566;2023-03-12T00:43:49;7.78;;;3.55;;
37409;SDS011;23275;48.914;12.566;2023-03-12T00:46:15;6.20;;;2.83;;
37409;SDS011;23275;48.914;12.566;2023-03-12T00:48:41;5.93;;;3.00;;
37409;SDS011;23275;48.914;12.566;2023-03-12T00:51:07;6.45;;;2.95;;
37409;SDS011;23275;48.914;12.566;2023-03-12T00:53:33;6.10;;;3.00;;
37409;SDS011;23275;48.914;12.566;2023-03-12T00:55:59;7.47;;;2.85;;
37409;SDS011;23275;48.914;12.566;2023-03-12T00:58:25;5.82;;;2.75;;
37409;SDS011;23275;48.914;12.566;2023-03-12T01:00:51;8.77;;;2.72;;
37409;SDS011;23275;48.914;12.566;2023-03-12T01:03:16;6.50;;;2.88;;
37409;SDS011;23275;48.914;12.566;2023-03-12T01:05:42;6.05;;;2.85;;
37409;SDS011;23275;48.914;12.566;2023-03-12T01:08:08;8.32;;;2.22;;
37409;SDS011;23275;48.914;12.566;2023-03-12T01:10:35;5.45;;;2.50;;
37409;SDS011;23275;48.914;12.566;2023-03-12T01:13:01;6.63;;;2.53;;
37409;SDS011;23275;48.914;12.566;2023-03-12T01:15:27;4.53;;;2.40;;
37409;SDS011;23275;48.914;12.566;2023-03-12T01:17:53;7.68;;;2.65;;
37409;SDS011;23275;48.914;12.566;2023-03-12T01:20:19;4.35;;;2.20;;
37409;SDS011;23275;48.914;12.566;2023-03-12T01:22:46;3.95;;;2.10;;
37409;SDS011;23275;48.914;12.566;2023-03-12T01:25:12;3.95;;;2.20;;
37409;SDS011;23275;48.914;12.566;2023-03-12T01:27:38;5.50;;;2.30;;
37409;SDS011;23275;48.914;12.566;2023-03-12T01:30:04;6.32;;;2.83;;
37409;SDS011;23275;48.914;12.566;2023-03-12T01:32:30;6.03;;;2.10;;
37409;SDS011;23275;48.914;12.566;2023-03-12T01:34:56;6.05;;;2.25;;
37409;SDS011;23275;48.914;12.566;2023-03-12T01:37:22;5.10;;;2.28;;
37409;SDS011;23275;48.914;12.566;2023-03-12T01:39:48;8.43;;;2.70;;
37409;SDS011;23275;48.914;12.566;2023-03-12T01:42:13;5.28;;;2.50;;
37409;SDS011;23275;48.914;12.566;2023-03-12T01:47:16;6.07;;;2.55;;
37409;SDS011;23275;48.914;12.566;2023-03-12T01:49:42;5.20;;;2.35;;
37409;SDS011;23275;48.914;12.566;2023-03-12T01:52:19;4.70;;;2.17;;
37409;SDS011;23275;48.914;12.566;2023-03-12T01:57:47;4.90;;;2.30;;
37409;SDS011;23275;48.914;12.566;2023-03-12T02:00:22;4.93;;;2.55;;
37409;SDS011;23275;48.914;12.566;2023-03-12T02:02:50;5.35;;;2.50;;
37409;SDS011;23275;48.914;12.566;2023-03-12T02:05:18;4.57;;;2.50;;
37409;SDS011;23275;48.914;12.566;2023-03-12T02:07:49;5.28;;;2.63;;
37409;SDS011;23275;48.914;12.566;2023-03-12T02:10:15;5.53;;;2.55;;
37409;SDS011;23275;48.914;12.566;2023-03-12T02:12:41;5.93;;;2.97;;
37409;SDS011;23275;48.914;12.566;2023-03-12T02:15:07;6.15;;;3.10;;
37409;SDS011;23275;48.914;12.566;2023-03-12T02:17:34;9.25;;;3.70;;
37409;SDS011;23275;48.914;12.566;2023-03-12T02:20:08;6.45;;;3.42;;
37409;SDS011;23275;48.914;12.566;2023-03-12T02:23:07;9.27;;;3.53;;
37409;SDS011;23275;48.914;12.566;2023-03-12T02:25:38;6.00;;;3.22;;
37409;SDS011;23275;48.914;12.566;2023-03-12T02:28:08;6.70;;;3.20;;
37409;SDS011;23275;48.914;12.566;2023-03-12T02:30:38;5.80;;;3.22;;
37409;SDS011;23275;48.914;12.566;2023-03-12T02:33:07;6.13;;;3.22;;
37409;SDS011;23275;48.914;12.566;2023-03-12T02:35:34;8.75;;;3.42;;
37409;SDS011;23275;48.914;12.566;2023-03-12T02:38:00;7.95;;;3.03;;
37409;SDS011;23275;48.914;12.566;2023-03-12T02:42:57;5.32;;;3.30;;
37409;SDS011;23275;48.914;12.566;2023-03-12T02:45:24;7.70;;;3.55;;
37409;SDS011;23275;48.914;12.566;2023-03-12T02:47:50;9.50;;;3.75;;
37409;SDS011;23275;48.914;12.566;2023-03-12T02:50:16;7.38;;;3.47;;
37409;SDS011;23275;48.914;12.566;2023-03-12T02:52:42;7.80;;;3.38;;
37409;SDS011;23275;48.914;12.566;2023-03-12T02:55:08;9.00;;;3.50;;
37409;SDS011;23275;48.914;12.566;2023-03-12T02:57:33;6.05;;;3.35;;
37409;SDS011;23275;48.914;12.566;2023-03-12T03:00:04;7.10;;;3.17;;
37409;SDS011;23275;48.914;12.566;2023-03-12T03:02:30;8.15;;;3.50;;
37409;SDS011;23275;48.914;12.566;2023-03-12T03:04:56;5.55;;;2.92;;
37409;SDS011;23275;48.914;12.566;2023-03-12T03:07:22;7.07;;;3.15;;
37409;SDS011;23275;48.914;12.566;2023-03-12T03:09:48;8.15;;;2.92;;
37409;SDS011;23275;48.914;12.566;2023-03-12T03:12:13;6.68;;;3.08;;
37409;SDS011;23275;48.914;12.566;2023-03-12T03:14:39;5.97;;;2.90;;
37409;SDS011;23275;48.914;12.566;2023-03-12T03:17:04;6.68;;;2.78;;
37409;SDS011;23275;48.914;12.566;2023-03-12T03:19:30;6.72;;;3.00;;
37409;SDS011;23275;48.914;12.566;2023-03-12T03:21:55;7.15;;;2.58;;
37409;SDS011;23275;48.914;12.566;2023-03-12T03:24:21;7.28;;;3.35;;
37409;SDS011;23275;48.914;12.566;2023-03-12T03:26:46;6.57;;;3.28;;
37409;SDS011;23275;48.914;12.566;2023-03-12T03:29:12;4.72;;;2.90;;
37409;SDS011;23275;48.914;12.566;2023-03-12T03:31:38;5.00;;;3.10;;
37409;SDS011;23275;48.914;12.566;2023-03-12T03:34:04;5.03;;;2.75;;
37409;SDS011;23275;48.914;12.566;2023-03-12T03:36:29;5.38;;;2.58;;
37409;SDS011;23275;48.914;12.566;2023-03-12T03:38:55;7.13;;;2.85;;
37409;SDS011;23275;48.914;12.566;2023-03-12T03:41:20;7.55;;;2.63;;
37409;SDS011;23275;48.914;12.566;2023-03-12T03:43:47;8.52;;;3.17;;
37409;SDS011;23275;48.914;12.566;2023-03-12T03:46:13;5.25;;;2.88;;
37409;SDS011;23275;48.914;12.566;2023-03-12T03:48:39;8.85;;;3.20;;
37409;SDS011;23275;48.914;12.566;2023-03-12T03:51:08;6.78;;;2.95;;
37409;SDS011;23275;48.914;12.566;2023-03-12T03:53:35;12.80;;;3.97;;
37409;SDS011;23275;48.914;12.566;2023-03-12T03:56:07;7.70;;;3.17;;
37409;SDS011;23275;48.914;12.566;2023-03-12T03:58:35;11.65;;;4.18;;
37409;SDS011;23275;48.914;12.566;2023-03-12T04:01:01;10.40;;;3.17;;
37409;SDS011;23275;48.914;12.566;2023-03-12T04:03:27;9.05;;;3.38;;
37409;SDS011;23275;48.914;12.566;2023-03-12T04:05:56;8.18;;;3.08;;
37409;SDS011;23275;48.914;12.566;2023-03-12T04:08:24;8.25;;;3.45;;
37409;SDS011;23275;48.914;12.566;2023-03-12T04:10:50;7.68;;;3.70;;
37409;SDS011;23275;48.914;12.566;2023-03-12T04:13:15;8.75;;;3.58;;
37409;SDS011;23275;48.914;12.566;2023-03-12T04:15:45;7.82;;;3.63;;
37409;SDS011;23275;48.914;12.566;2023-03-12T04:18:13;7.88;;;3.80;;
37409;SDS011;23275;48.914;12.566;2023-03-12T04:20:38;8.25;;;3.50;;
37409;SDS011;23275;48.914;12.566;2023-03-12T04:23:04;7.95;;;3.50;;
37409;SDS011;23275;48.914;12.566;2023-03-12T04:25:30;8.77;;;3.53;;
37409;SDS011;23275;48.914;12.566;2023-03-12T04:27:55;7.10;;;3.40;;
37409;SDS011;23275;48.914;12.566;2023-03-12T04:30:21;9.18;;;3.28;;
37409;SDS011;23275;48.914;12.566;2023-03-12T04:32:46;8.55;;;2.95;;
37409;SDS011;23275;48.914;12.566;2023-03-12T04:35:12;7.47;;;3.45;;
37409;SDS011;23275;48.914;12.566;2023-03-12T04:37:38;6.47;;;3.08;;
37409;SDS011;23275;48.914;12.566;2023-03-12T04:40:03;6.57;;;3.35;;
37409;SDS011;23275;48.914;12.566;2023-03-12T04:42:33;7.07;;;3.08;;
37409;SDS011;23275;48.914;12.566;2023-03-12T04:44:59;7.85;;;3.33;;
37409;SDS011;23275;48.914;12.566;2023-03-12T04:47:25;5.80;;;2.90;;
37409;SDS011;23275;48.914;12.566;2023-03-12T04:49:50;6.72;;;3.13;;
37409;SDS011;23275;48.914;12.566;2023-03-12T04:52:16;8.40;;;3.25;;
37409;SDS011;23275;48.914;12.566;2023-03-12T04:54:42;7.82;;;3.33;;
37409;SDS011;23275;48.914;12.566;2023-03-12T04:57:07;5.55;;;3.13;;
37409;SDS011;23275;48.914;12.566;2023-03-12T04:59:33;5.38;;;3.03;;
37409;SDS011;23275;48.914;12.566;2023-03-12T05:01:59;7.70;;;3.35;;
37409;SDS011;23275;48.914;12.566;2023-03-12T05:04:24;7.97;;;3.42;;
37409;SDS011;23275;48.914;12.566;2023-03-12T05:06:50;6.80;;;3.33;;
37409;SDS011;23275;48.914;12.566;2023-03-12T05:09:15;6.25;;;2.70;;
37409;SDS011;23275;48.914;12.566;2023-03-12T05:11:41;8.85;;;3.00;;
37409;SDS011;23275;48.914;12.566;2023-03-12T05:14:08;7.25;;;3.80;;
37409;SDS011;23275;48.914;12.566;2023-03-12T05:16:35;8.43;;;3.60;;
37409;SDS011;23275;48.914;12.566;2023-03-12T05:19:01;8.10;;;3.65;;
37409;SDS011;23275;48.914;12.566;2023-03-12T05:21:28;11.00;;;3.30;;
37409;SDS011;23275;48.914;12.566;2023-03-12T05:23:54;6.75;;;2.83;;
37409;SDS011;23275;48.914;12.566;2023-03-12T05:26:30;7.65;;;2.80;;
37409;SDS011;23275;48.914;12.566;2023-03-12T05:28:57;7.25;;;2.92;;
37409;SDS011;23275;48.914;12.566;2023-03-12T05:31:23;5.35;;;2.75;;
37409;SDS011;23275;48.914;12.566;2023-03-12T05:33:49;6.88;;;3.00;;
37409;SDS011;23275;48.914;12.566;2023-03-12T05:36:15;6.72;;;2.60;;
37409;SDS011;23275;48.914;12.566;2023-03-12T05:38:41;6.53;;;2.97;;
37409;SDS011;23275;48.914;12.566;2023-03-12T05:41:08;4.63;;;2.60;;
37409;SDS011;23275;48.914;12.566;2023-03-12T05:43:40;7.15;;;2.90;;
37409;SDS011;23275;48.914;12.566;2023-03-12T05:46:06;5.70;;;2.78;;
37409;SDS011;23275;48.914;12.566;2023-03-12T05:48:33;8.00;;;2.70;;
37409;SDS011;23275;48.914;12.566;2023-03-12T05:50:59;6.10;;;2.92;;
37409;SDS011;23275;48.914;12.566;2023-03-12T05:53:25;7.65;;;3.13;;
37409;SDS011;23275;48.914;12.566;2023-03-12T05:55:51;5.28;;;2.67;;
37409;SDS011;23275;48.914;12.566;2023-03-12T05:58:16;6.03;;;2.97;;
37409;SDS011;23275;48.914;12.566;2023-03-12T06:00:42;4.90;;;2.38;;
37409;SDS011;23275;48.914;12.566;2023-03-12T06:03:09;7.13;;;2.47;;
37409;SDS011;23275;48.914;12.566;2023-03-12T06:05:35;6.30;;;2.60;;
37409;SDS011;23275;48.914;12.566;2023-03-12T06:08:01;6.75;;;2.78;;
37409;SDS011;23275;48.914;12.566;2023-03-12T06:10:27;5.95;;;2.55;;
37409;SDS011;23275;48.914;12.566;2023-03-12T06:12:53;6.07;;;3.28;;
37409;SDS011;23275;48.914;12.566;2023-03-12T06:15:18;5.40;;;2.63;;
37409;SDS011;23275;48.914;12.566;2023-03-12T06:17:44;7.45;;;2.72;;
37409;SDS011;23275;48.914;12.566;2023-03-12T06:20:10;5.07;;;2.40;;
37409;SDS011;23275;48.914;12.566;2023-03-12T06:22:36;5.60;;;2.75;;
37409;SDS011;23275;48.914;12.566;2023-03-12T06:25:02;7.05;;;2.80;;
37409;SDS011;23275;48.914;12.566;2023-03-12T06:27:29;6.68;;;2.53;;
37409;SDS011;23275;48.914;12.566;2023-03-12T06:29:55;5.30;;;2.72;;
37409;SDS011;23275;48.914;12.566;2023-03-12T06:32:20;4.85;;;2.60;;
37409;SDS011;23275;48.914;12.566;2023-03-12T06:34:46;5.80;;;2.60;;
37409;SDS011;23275;48.914;12.566;2023-03-12T06:37:12;6.38;;;3.00;;
37409;SDS011;23275;48.914;12.566;2023-03-12T06:39:37;5.57;;;2.92;;
37409;SDS011;23275;48.914;12.566;2023-03-12T06:42:03;5.30;;;2.90;;
37409;SDS011;23275;48.914;12.566;2023-03-12T06:44:29;6.15;;;3.35;;
37409;SDS011;23275;48.914;12.566;2023-03-12T06:46:55;6.50;;;3.45;;
37409;SDS011;23275;48.914;12.566;2023-03-12T06:49:21;10.75;;;5.18;;
37409;SDS011;23275;48.914;12.566;2023-03-12T06:51:47;7.20;;;4.18;;
37409;SDS011;23275;48.914;12.566;2023-03-12T06:54:13;6.80;;;3.35;;
37409;SDS011;23275;48.914;12.566;2023-03-12T06:56:39;9.10;;;3.55;;
37409;SDS011;23275;48.914;12.566;2023-03-12T06:59:05;8.75;;;3.78;;
37409;SDS011;23275;48.914;12.566;2023-03-12T07:01:31;5.93;;;3.42;;
37409;SDS011;23275;48.914;12.566;2023-03-12T07:03:56;6.25;;;3.47;;
37409;SDS011;23275;48.914;12.566;2023-03-12T07:06:23;6.40;;;3.53;;
37409;SDS011;23275;48.914;12.566;2023-03-12T07:08:49;6.45;;;3.28;;
37409;SDS011;23275;48.914;12.566;2023-03-12T07:11:15;5.47;;;3.17;;
37409;SDS011;23275;48.914;12.566;2023-03-12T07:13:42;8.20;;;3.30;;
37409;SDS011;23275;48.914;12.566;2023-03-12T07:16:08;6.35;;;3.72;;
37409;SDS011;23275;48.914;12.566;2023-03-12T07:18:34;6.55;;;3.30;;
37409;SDS011;23275;48.914;12.566;2023-03-12T07:21:00;7.30;;;3.60;;
37409;SDS011;23275;48.914;12.566;2023-03-12T07:23:26;5.68;;;3.22;;
37409;SDS011;23275;48.914;12.566;2023-03-12T07:25:51;6.95;;;3.30;;
37409;SDS011;23275;48.914;12.566;2023-03-12T07:28:18;8.10;;;4.35;;
37409;SDS011;23275;48.914;12.566;2023-03-12T07:30:44;8.23;;;4.47;;
37409;SDS011;23275;48.914;12.566;2023-03-12T07:33:14;12.20;;;3.92;;
37409;SDS011;23275;48.914;12.566;2023-03-12T07:35:42;7.70;;;3.78;;
37409;SDS011;23275;48.914;12.566;2023-03-12T07:38:07;7.45;;;4.05;;
37409;SDS011;23275;48.914;12.566;2023-03-12T07:40:33;5.57;;;3.67;;
37409;SDS011;23275;48.914;12.566;2023-03-12T07:43:00;6.03;;;3.65;;
37409;SDS011;23275;48.914;12.566;2023-03-12T07:45:26;9.77;;;4.20;;
37409;SDS011;23275;48.914;12.566;2023-03-12T07:47:52;7.38;;;4.38;;
37409;SDS011;23275;48.914;12.566;2023-03-12T07:50:18;6.22;;;3.97;;
37409;SDS011;23275;48.914;12.566;2023-03-12T07:52:44;8.13;;;3.97;;
37409;SDS011;23275;48.914;12.566;2023-03-12T07:55:10;8.25;;;4.25;;
37409;SDS011;23275;48.914;12.566;2023-03-12T07:57:35;8.50;;;4.57;;
37409;SDS011;23275;48.914;12.566;2023-03-12T08:00:02;10.65;;;4.35;;
37409;SDS011;23275;48.914;12.566;2023-03-12T08:02:31;7.47;;;4.10;;
37409;SDS011;23275;48.914;12.566;2023-03-12T08:04:57;9.27;;;4.90;;
37409;SDS011;23275;48.914;12.566;2023-03-12T08:07:22;8.18;;;4.78;;
37409;SDS011;23275;48.914;12.566;2023-03-12T08:09:48;9.80;;;4.78;;
37409;SDS011;23275;48.914;12.566;2023-03-12T08:12:13;8.95;;;4.32;;
37409;SDS011;23275;48.914;12.566;2023-03-12T08:14:39;8.15;;;4.80;;
37409;SDS011;23275;48.914;12.566;2023-03-12T08:17:04;6.85;;;4.32;;
37409;SDS011;23275;48.914;12.566;2023-03-12T08:19:30;7.43;;;4.30;;
37409;SDS011;23275;48.914;12.566;2023-03-12T08:21:55;7.68;;;4.30;;
37409;SDS011;23275;48.914;12.566;2023-03-12T08:24:22;7.03;;;4.47;;
37409;SDS011;23275;48.914;12.566;2023-03-12T08:26:47;7.05;;;4.63;;
37409;SDS011;23275;48.914;12.566;2023-03-12T08:29:13;8.77;;;4.05;;
37409;SDS011;23275;48.914;12.566;2023-03-12T08:31:39;8.02;;;4.30;;
37409;SDS011;23275;48.914;12.566;2023-03-12T08:34:05;6.30;;;3.70;;
37409;SDS011;23275;48.914;12.566;2023-03-12T08:36:30;6.20;;;3.85;;
37409;SDS011;23275;48.914;12.566;2023-03-12T08:38:56;7.50;;;4.25;;
37409;SDS011;23275;48.914;12.566;2023-03-12T08:41:21;5.88;;;3.95;;
37409;SDS011;23275;48.914;12.566;2023-03-12T08:43:47;5.53;;;3.97;;
37409;SDS011;23275;48.914;12.566;2023-03-12T08:46:12;10.30;;;4.38;;
37409;SDS011;23275;48.914;12.566;2023-03-12T08:48:38;6.97;;;4.10;;
37409;SDS011;23275;48.914;12.566;2023-03-12T08:51:04;7.40;;;3.72;;
37409;SDS011;23275;48.914;12.566;2023-03-12T08:53:32;6.55;;;3.58;;
37409;SDS011;23275;48.914;12.566;2023-03-12T08:55:59;5.85;;;4.07;;
37409;SDS011;23275;48.914;12.566;2023-03-12T08:58:25;8.35;;;3.63;;
37409;SDS011;23275;48.914;12.566;2023-03-12T09:00:52;8.45;;;4.07;;
37409;SDS011;23275;48.914;12.566;2023-03-12T09:03:18;6.72;;;4.20;;
37409;SDS011;23275;48.914;12.566;2023-03-12T09:05:45;8.63;;;3.67;;
37409;SDS011;23275;48.914;12.566;2023-03-12T09:08:11;7.70;;;3.42;;
37409;SDS011;23275;48.914;12.566;2023-03-12T09:10:37;6.00;;;3.20;;
37409;SDS011;23275;48.914;12.566;2023-03-12T09:13:03;5.60;;;3.50;;
37409;SDS011;23275;48.914;12.566;2023-03-12T09:15:29;6.05;;;3.60;;
37409;SDS011;23275;48.914;12.566;2023-03-12T09:17:55;5.90;;;3.72;;
37409;SDS011;23275;48.914;12.566;2023-03-12T09:20:21;7.18;;;3.80;;
37409;SDS011;23275;48.914;12.566;2023-03-12T09:22:47;6.22;;;3.50;;
37409;SDS011;23275;48.914;12.566;2023-03-12T09:25:13;6.68;;;3.67;;
37409;SDS011;23275;48.914;12.566;2023-03-12T09:27:43;7.15;;;3.83;;
37409;SDS011;23275;48.914;12.566;2023-03-12T09:30:12;8.43;;;3.85;;
37409;SDS011;23275;48.914;12.566;2023-03-12T09:32:39;7.55;;;4.20;;
37409;SDS011;23275;48.914;12.566;2023-03-12T09:35:05;5.95;;;3.22;;
37409;SDS011;23275;48.914;12.566;2023-03-12T09:37:32;6.35;;;3.40;;
37409;SDS011;23275;48.914;12.566;2023-03-12T09:39:58;5.70;;;3.25;;
37409;SDS011;23275;48.914;12.566;2023-03-12T09:42:25;5.10;;;3.17;;
37409;SDS011;23275;48.914;12.566;2023-03-12T09:44:58;7.05;;;3.35;;
37409;SDS011;23275;48.914;12.566;2023-03-12T09:47:30;7.03;;;4.10;;
37409;SDS011;23275;48.914;12.566;2023-03-12T09:50:03;5.93;;;3.47;;
37409;SDS011;23275;48.914;12.566;2023-03-12T09:52:41;8.55;;;3.45;;
37409;SDS011;23275;48.914;12.566;2023-03-12T09:55:13;5.93;;;3.50;;
37409;SDS011;23275;48.914;12.566;2023-03-12T09:57:43;9.23;;;4.00;;
37409;SDS011;23275;48.914;12.566;2023-03-12T10:00:11;9.65;;;3.60;;
37409;SDS011;23275;48.914;12.566;2023-03-12T10:14:31;7.05;;;3.53;;
37409;SDS011;23275;48.914;12.566;2023-03-12T10:20:03;8.82;;;3.75;;
37409;SDS011;23275;48.914;12.566;2023-03-12T10:25:59;4.85;;;2.90;;
37409;SDS011;23275;48.914;12.566;2023-03-12T10:28:38;7.32;;;3.00;;
37409;SDS011;23275;48.914;12.566;2023-03-12T10:37:25;6.25;;;2.75;;
37409;SDS011;23275;48.914;12.566;2023-03-12T10:40:21;4.38;;;2.20;;
37409;SDS011;23275;48.914;12.566;2023-03-12T10:42:48;4.72;;;2.13;;
37409;SDS011;23275;48.914;12.566;2023-03-12T10:47:55;5.20;;;2.75;;
37409;SDS011;23275;48.914;12.566;2023-03-12T10:50:25;5.60;;;2.85;;
37409;SDS011;23275;48.914;12.566;2023-03-12T10:53:10;4.85;;;2.67;;
37409;SDS011;23275;48.914;12.566;2023-03-12T10:55:42;5.50;;;2.90;;
37409;SDS011;23275;48.914;12.566;2023-03-12T10:58:21;3.30;;;1.88;;
37409;SDS011;23275;48.914;12.566;2023-03-12T11:00:53;5.88;;;2.50;;
37409;SDS011;23275;48.914;12.566;2023-03-12T11:03:23;8.27;;;3.60;;
37409;SDS011;23275;48.914;12.566;2023-03-12T11:05:54;5.70;;;2.75;;
37409;SDS011;23275;48.914;12.566;2023-03-12T11:08:30;7.18;;;3.97;;
37409;SDS011;23275;48.914;12.566;2023-03-12T11:10:58;8.20;;;3.38;;
37409;SDS011;23275;48.914;12.566;2023-03-12T11:15:55;5.90;;;2.63;;
37409;SDS011;23275;48.914;12.566;2023-03-12T11:18:29;5.68;;;2.47;;
37409;SDS011;23275;48.914;12.566;2023-03-12T11:23:34;5.90;;;1.52;;
37409;SDS011;23275;48.914;12.566;2023-03-12T11:28:46;5.18;;;1.92;;
37409;SDS011;23275;48.914;12.566;2023-03-12T11:31:37;4.88;;;2.28;;
37409;SDS011;23275;48.914;12.566;2023-03-12T11:34:07;6.22;;;2.92;;
37409;SDS011;23275;48.914;12.566;2023-03-12T11:36:59;6.05;;;2.70;;
37409;SDS011;23275;48.914;12.566;2023-03-12T11:48:38;6.40;;;3.35;;
37409;SDS011;23275;48.914;12.566;2023-03-12T11:56:23;8.13;;;4.60;;
37409;SDS011;23275;48.914;12.566;2023-03-12T12:01:47;9.43;;;4.80;;
37409;SDS011;23275;48.914;12.566;2023-03-12T12:12:42;10.10;;;4.88;;
37409;SDS011;23275;48.914;12.566;2023-03-12T12:18:30;8.18;;;5.15;;
37409;SDS011;23275;48.914;12.566;2023-03-12T12:26:05;11.90;;;5.13;;
37409;SDS011;23275;48.914;12.566;2023-03-12T12:32:00;12.63;;;5.43;;
37409;SDS011;23275;48.914;12.566;2023-03-12T12:40:17;12.70;;;6.18;;
37409;SDS011;23275;48.914;12.566;2023-03-12T12:45:18;13.55;;;6.93;;
37409;SDS011;23275;48.914;12.566;2023-03-12T12:47:46;11.55;;;5.88;;
37409;SDS011;23275;48.914;12.566;2023-03-12T12:50:20;13.10;;;6.43;;
37409;SDS011;23275;48.914;12.566;2023-03-12T12:52:51;10.00;;;5.80;;
37409;SDS011;23275;48.914;12.566;2023-03-12T12:55:25;9.48;;;6.00;;
37409;SDS011;23275;48.914;12.566;2023-03-12T12:57:58;19.75;;;6.40;;
37409;SDS011;23275;48.914;12.566;2023-03-12T13:03:21;11.10;;;5.60;;
37409;SDS011;23275;48.914;12.566;2023-03-12T13:05:53;13.77;;;6.22;;
37409;SDS011;23275;48.914;12.566;2023-03-12T13:13:43;10.10;;;5.30;;
37409;SDS011;23275;48.914;12.566;2023-03-12T13:19:30;9.70;;;5.32;;
37409;SDS011;23275;48.914;12.566;2023-03-12T13:32:00;11.10;;;6.25;;
37409;SDS011;23275;48.914;12.566;2023-03-12T13:36:52;11.65;;;7.22;;
37409;SDS011;23275;48.914;12.566;2023-03-12T13:39:32;12.43;;;7.20;;
37409;SDS011;23275;48.914;12.566;2023-03-12T13:42:00;11.93;;;7.65;;
37409;SDS011;23275;48.914;12.566;2023-03-12T13:44:46;11.80;;;5.97;;
37409;SDS011;23275;48.914;12.566;2023-03-12T13:47:22;13.80;;;6.50;;
37409;SDS011;23275;48.914;12.566;2023-03-12T13:52:47;12.82;;;6.32;;
37409;SDS011;23275;48.914;12.566;2023-03-12T13:55:30;15.93;;;8.88;;
37409;SDS011;23275;48.914;12.566;2023-03-12T13:58:05;13.70;;;7.47;;
37409;SDS011;23275;48.914;12.566;2023-03-12T14:00:58;16.35;;;8.20;;
37409;SDS011;23275;48.914;12.566;2023-03-12T14:06:06;15.73;;;9.45;;
37409;SDS011;23275;48.914;12.566;2023-03-12T14:11:30;18.98;;;9.57;;
37409;SDS011;23275;48.914;12.566;2023-03-12T14:16:50;17.77;;;10.52;;
37409;SDS011;23275;48.914;12.566;2023-03-12T14:19:19;22.70;;;11.07;;
37409;SDS011;23275;48.914;12.566;2023-03-12T14:24:26;19.95;;;11.00;;
37409;SDS011;23275;48.914;12.566;2023-03-12T14:27:01;19.52;;;10.82;;
37409;SDS011;23275;48.914;12.566;2023-03-12T14:29:35;18.70;;;11.23;;
37409;SDS011;23275;48.914;12.566;2023-03-12T14:32:05;20.83;;;10.82;;
37409;SDS011;23275;48.914;12.566;2023-03-12T14:35:25;18.77;;;11.10;;
37409;SDS011;23275;48.914;12.566;2023-03-12T14:37:41;18.67;;;10.90;;
37409;SDS011;23275;48.914;12.566;2023-03-12T14:40:21;20.60;;;11.57;;
37409;SDS011;23275;48.914;12.566;2023-03-12T14:43:02;19.05;;;12.20;;
37409;SDS011;23275;48.914;12.566;2023-03-12T14:45:42;18.02;;;11.80;;
37409;SDS011;23275;48.914;12.566;2023-03-12T14:48:09;22.92;;;10.90;;
37409;SDS011;23275;48.914;12.566;2023-03-12T14:50:37;17.10;;;10.35;;
37409;SDS011;23275;48.914;12.566;2023-03-12T14:53:37;15.70;;;11.07;;
37409;SDS011;23275;48.914;12.566;2023-03-12T14:58:41;17.58;;;10.70;;
37409;SDS011;23275;48.914;12.566;2023-03-12T15:01:17;18.52;;;10.10;;
37409;SDS011;23275;48.914;12.566;2023-03-12T15:04:04;17.13;;;10.88;;
37409;SDS011;23275;48.914;12.566;2023-03-12T15:06:51;16.13;;;9.95;;
37409;SDS011;23275;48.914;12.566;2023-03-12T15:09:23;17.33;;;10.48;;
37409;SDS011;23275;48.914;12.566;2023-03-12T15:11:54;19.45;;;11.23;;
37409;SDS011;23275;48.914;12.566;2023-03-12T15:14:22;17.38;;;10.60;;
37409;SDS011;23275;48.914;12.566;2023-03-12T15:16:50;17.42;;;10.65;;
37409;SDS011;23275;48.914;12.566;2023-03-12T15:19:20;19.05;;;11.82;;
37409;SDS011;23275;48.914;12.566;2023-03-12T15:21:51;18.42;;;11.15;;
37409;SDS011;23275;48.914;12.566;2023-03-12T15:24:17;18.35;;;11.40;;
37409;SDS011;23275;48.914;12.566;2023-03-12T15:26:43;18.13;;;10.73;;
37409;SDS011;23275;48.914;12.566;2023-03-12T15:31:51;15.68;;;9.77;;
37409;SDS011;23275;48.914;12.566;2023-03-12T15:34:31;17.70;;;10.13;;
37409;SDS011;23275;48.914;12.566;2023-03-12T15:36:59;18.13;;;9.70;;
37409;SDS011;23275;48.914;12.566;2023-03-12T15:39:30;20.30;;;12.32;;
37409;SDS011;23275;48.914;12.566;2023-03-12T15:42:01;20.60;;;11.70;;
37409;SDS011;23275;48.914;12.566;2023-03-12T15:47:10;20.55;;;11.65;;
37409;SDS011;23275;48.914;12.566;2023-03-12T15:49:39;17.15;;;9.73;;
37409;SDS011;23275;48.914;12.566;2023-03-12T15:52:11;17.25;;;9.85;;
37409;SDS011;23275;48.914;12.566;2023-03-12T15:55:32;15.25;;;9.63;;
37409;SDS011;23275;48.914;12.566;2023-03-12T15:57:54;16.60;;;10.07;;
37409;SDS011;23275;48.914;12.566;2023-03-12T16:00:28;15.85;;;9.75;;
37409;SDS011;23275;48.914;12.566;2023-03-12T16:03:17;15.15;;;9.40;;
37409;SDS011;23275;48.914;12.566;2023-03-12T16:05:44;13.80;;;9.30;;
37409;SDS011;23275;48.914;12.566;2023-03-12T16:08:15;13.45;;;8.95;;
37409;SDS011;23275;48.914;12.566;2023-03-12T16:10:47;15.15;;;9.70;;
37409;SDS011;23275;48.914;12.566;2023-03-12T16:13:14;17.42;;;10.57;;
37409;SDS011;23275;48.914;12.566;2023-03-12T16:15:42;16.67;;;10.70;;
37409;SDS011;23275;48.914;12.566;2023-03-12T16:18:11;17.83;;;10.68;;
37409;SDS011;23275;48.914;12.566;2023-03-12T16:20:39;19.05;;;10.48;;
37409;SDS011;23275;48.914;12.566;2023-03-12T16:23:04;17.65;;;11.52;;
37409;SDS011;23275;48.914;12.566;2023-03-12T16:25:30;18.13;;;11.60;;
37409;SDS011;23275;48.914;12.566;2023-03-12T16:27:57;20.42;;;12.23;;
37409;SDS011;23275;48.914;12.566;2023-03-12T16:30:27;17.05;;;11.05;;
37409;SDS011;23275;48.914;12.566;2023-03-12T16:32:55;18.88;;;12.02;;
37409;SDS011;23275;48.914;12.566;2023-03-12T16:35:22;22.80;;;13.82;;
37409;SDS011;23275;48.914;12.566;2023-03-12T16:37:48;21.42;;;12.45;;
37409;SDS011;23275;48.914;12.566;2023-03-12T16:40:14;23.08;;;13.05;;
37409;SDS011;23275;48.914;12.566;2023-03-12T16:42:42;23.05;;;13.68;;
37409;SDS011;23275;48.914;12.566;2023-03-12T16:45:11;22.25;;;14.15;;
37409;SDS011;23275;48.914;12.566;2023-03-12T16:47:38;22.95;;;14.68;;
37409;SDS011;23275;48.914;12.566;2023-03-12T16:50:11;20.88;;;13.00;;
37409;SDS011;23275;48.914;12.566;2023-03-12T16:52:42;21.60;;;12.93;;